BA766 / G-EUPU 7700 Squawk Report (16th of April, 2018)

Aircraft A319 Reg No. G-EUPU Age 17 years old
Model A319 Jet engines 2 First flight 21-11-00
Registered 14-12-00 Rollout 11-00 Delivered 14-12-00
Construction No. 1384 Line No. N/A Series 131
ADSHEX 4008B5 Airline name British Airways Owner N/A
Airfield based Heathrow~Gtr London~G First tracked 2011-04-01 15:27:02

Flight history for G-EUPU

Route Flight No Date Playback
Heathrow (LHR) - Frankfurt Main (FRA) BA908 2018-07-23 15:49:00
Dyce (ABZ) - Heathrow (LHR) BA1307 2018-07-23 11:35:00
Heathrow (LHR) - Dyce (ABZ) BA1306 2018-07-23 10:08:00
Charles De Gaulle (CDG) - Heathrow (LHR) BA303 2018-07-23 06:33:00
Heathrow (LHR) - Charles De Gaulle (CDG) BA326 2018-07-23 05:25:00
Geneve Cointrin (GVA) - Heathrow (LHR) BA735 2018-07-22 20:15:00
Heathrow (LHR) - Geneve Cointrin (GVA) BA734 2018-07-22 16:28:00
Dyce (ABZ) - Heathrow (LHR) BA1307 2018-07-22 15:12:00
Heathrow (LHR) - Dyce (ABZ) BA1306 2018-07-22 09:04:00
Newcastle (NCL) - Heathrow (LHR) BA1337 2018-07-21 19:44:00
Heathrow (LHR) - Newcastle (NCL) BA1336 2018-07-21 18:11:00
Frankfurt Main (FRA) - Heathrow (LHR) BA905 2018-07-21 17:09:00
Heathrow (LHR) - Frankfurt Main (FRA) BA904 2018-07-21 14:13:00
Geneve Cointrin (GVA) - Heathrow (LHR) BA723 2018-07-21 11:52:00
Heathrow (LHR) - Geneve Cointrin (GVA) BA738 2018-07-20 21:05:00
Manchester (MAN) - Heathrow (LHR) BA1403 2018-07-20 19:36:00
Heathrow (LHR) - Manchester (MAN) BA1396 2018-07-20 16:30:00
Schiphol (AMS) - Heathrow (LHR) BA435 2018-07-20 15:42:00
Heathrow (LHR) - Schiphol (AMS) BA434 2018-07-20 13:15:00
Charles De Gaulle (CDG) - Heathrow (LHR) BA307 2018-07-20 11:24:00
Time Lat Lon Altitude Heading Speed Vertical Rate
2018-04-16 13:16:13 GMT 51.477676 -0.435519 50 270 129 -704
2018-04-16 13:16:08 GMT 51.477695 -0.431519 100 270 128 -704
2018-04-16 13:16:04 GMT 51.477695 -0.427017 150 270 126 -576
2018-04-16 13:15:58 GMT 51.477768 -0.421934 300 270 128 -768
2018-04-16 13:15:53 GMT 51.477768 -0.417480 275 270 126 -704
2018-04-16 13:15:46 GMT 51.477791 -0.410538 375 270 126 -640
2018-04-16 13:15:43 GMT 51.477768 -0.407756 400 270 125 -768
2018-04-16 13:15:40 GMT 51.477768 -0.405158 425 270 126 -640
2018-04-16 13:15:36 GMT 51.477768 -0.401446 475 270 128 -768
2018-04-16 13:15:33 GMT 51.477814 -0.398032 525 270 130 -832
2018-04-16 13:15:30 GMT 51.477791 -0.395126 550 270 132 -768
2018-04-16 13:15:27 GMT 51.477837 -0.392838 600 270 134 -704
2018-04-16 13:15:23 GMT 51.477837 -0.388489 650 270 134 -704
2018-04-16 13:15:19 GMT 51.477837 -0.384903 725 270 130 -640
2018-04-16 13:15:16 GMT 51.477859 -0.381552 825 270 125 -832
2018-04-16 13:15:12 GMT 51.477837 -0.378342 775 270 126 -896
2018-04-16 13:15:06 GMT 51.477859 -0.371828 900 269 128 -832
2018-04-16 13:15:02 GMT 51.477882 -0.368652 925 270 125 -832
2018-04-16 13:14:58 GMT 51.477882 -0.364990 1,025 270 130 -640
2018-04-16 13:14:55 GMT 51.477882 -0.362015 1,025 270 126 -896
2018-04-16 13:14:52 GMT 51.477905 -0.359208 1,075 269 127 -768
2018-04-16 13:14:47 GMT 51.477978 -0.354919 1,175 270 129 -768
2018-04-16 13:14:44 GMT 51.478043 -0.349781 1,200 270 129 -768
2018-04-16 13:14:41 GMT 51.478024 -0.347672 1,225 270 130 -704
2018-04-16 13:14:35 GMT 51.478024 -0.343399 1,350 270 141 -832
2018-04-16 13:14:31 GMT 51.478024 -0.339203 1,500 270 147 -832
2018-04-16 13:14:28 GMT 51.477997 -0.336271 1,375 271 128 -640
2018-04-16 13:14:25 GMT 51.477997 -0.333673 1,425 270 141 -832
2018-04-16 13:14:20 GMT 51.477951 -0.328625 1,475 270 133 -832
2018-04-16 13:14:16 GMT 51.477951 -0.324616 1,550 270 139 -896
2018-04-16 13:14:13 GMT 51.477978 -0.321121 1,575 270 141 -832
2018-04-16 13:14:10 GMT 51.477997 -0.317564 1,625 270 145 -832
2018-04-16 13:14:05 GMT 51.477997 -0.312813 1,700 270 147 -1088
2018-04-16 13:14:00 GMT 51.478043 -0.307543 1,900 270 150 -896
2018-04-16 13:13:57 GMT 51.478043 -0.304054 1,825 270 150 -896
2018-04-16 13:13:54 GMT 51.478069 -0.301132 1,875 270 151 -832
2018-04-16 13:13:51 GMT 51.478088 -0.297819 2,000 271 154 -960
2018-04-16 13:13:47 GMT 51.478088 -0.293736 1,975 270 154 -896
2018-04-16 13:13:44 GMT 51.478069 -0.289841 2,025 271 154 -960
2018-04-16 13:13:39 GMT 51.478069 -0.283966 2,125 270 151 -896
2018-04-16 13:13:36 GMT 51.478069 -0.280762 2,175 270 151 -896
2018-04-16 13:13:33 GMT 51.478043 -0.277405 2,200 270 153 -960
2018-04-16 13:13:28 GMT 51.478069 -0.272217 2,325 270 150 -768
2018-04-16 13:13:24 GMT 51.478134 -0.267087 2,350 270 150 -704
2018-04-16 13:13:21 GMT 51.478180 -0.263523 2,450 269 150 -1024
2018-04-16 13:13:18 GMT 51.478210 -0.259781 2,650 269 150 -1152
2018-04-16 13:13:13 GMT 51.478302 -0.254898 2,525 269 150 -1280
2018-04-16 13:13:10 GMT 51.478363 -0.251127 2,625 269 152 -1024
2018-04-16 13:13:07 GMT 51.478409 -0.248454 2,650 269 153 -960
2018-04-16 13:13:03 GMT 51.478455 -0.244372 2,750 269 163 -448
2018-04-16 13:13:00 GMT 51.478489 -0.240021 2,775 269 162 -448
2018-04-16 13:12:57 GMT 51.478535 -0.237198 2,800 270 171 -256
2018-04-16 13:12:53 GMT 51.478580 -0.232315 2,825 270 172 -192
2018-04-16 13:12:50 GMT 51.478580 -0.228348 2,850 270 170 -64
2018-04-16 13:12:47 GMT 51.478626 -0.223770 2,875 270 169 128
2018-04-16 13:12:44 GMT 51.478592 -0.218984 2,875 270 170 64
2018-04-16 13:12:40 GMT 51.478638 -0.215495 2,850 271 168 192
2018-04-16 13:12:37 GMT 51.478626 -0.211716 2,850 271 168 192
2018-04-16 13:12:33 GMT 51.478592 -0.206513 2,825 271 166 128
2018-04-16 13:12:30 GMT 51.478546 -0.203618 2,825 271 168 0
2018-04-16 13:12:27 GMT 51.478546 -0.199684 2,825 271 173 64
2018-04-16 13:12:23 GMT 51.478535 -0.194931 2,825 271 173 64
2018-04-16 13:12:20 GMT 51.478500 -0.188995 2,825 272 176 -192
2018-04-16 13:12:16 GMT 51.478397 -0.184097 2,850 272 177 -128
2018-04-16 13:12:12 GMT 51.478348 -0.179901 2,850 272 177 -192
2018-04-16 13:12:08 GMT 51.478302 -0.174637 2,875 272 176 -192
2018-04-16 13:12:04 GMT 51.478210 -0.169449 2,875 272 176 -192
2018-04-16 13:12:01 GMT 51.478180 -0.166576 2,875 272 175 64
2018-04-16 13:11:58 GMT 51.478088 -0.161900 2,875 272 174 -64
2018-04-16 13:11:55 GMT 51.478043 -0.158337 2,875 272 173 -128
2018-04-16 13:11:52 GMT 51.477978 -0.154419 2,875 271 173 -64
2018-04-16 13:11:48 GMT 51.477905 -0.149058 2,875 269 174 192
2018-04-16 13:11:45 GMT 51.477905 -0.144975 2,900 270 173 64
2018-04-16 13:11:42 GMT 51.477905 -0.140892 2,875 269 174 128
2018-04-16 13:11:38 GMT 51.477997 -0.136216 2,875 269 175 192
2018-04-16 13:11:34 GMT 51.478115 -0.129166 2,875 269 176 0
2018-04-16 13:11:31 GMT 51.478180 -0.127382 2,850 268 175 256
2018-04-16 13:11:28 GMT 51.478256 -0.122452 2,850 267 176 64
2018-04-16 13:11:25 GMT 51.478397 -0.117722 2,825 268 176 128
2018-04-16 13:11:22 GMT 51.478500 -0.115431 2,825 268 176 128
2018-04-16 13:11:19 GMT 51.478638 -0.111274 2,825 268 176 256
2018-04-16 13:11:16 GMT 51.478729 -0.107042 2,825 268 176 256
2018-04-16 13:11:11 GMT 51.478954 -0.100021 2,825 268 176 -384
2018-04-16 13:11:08 GMT 51.479004 -0.097689 2,850 269 176 -576
2018-04-16 13:11:05 GMT 51.479141 -0.093307 2,950 269 176 -576
2018-04-16 13:11:01 GMT 51.479141 -0.086975 2,925 275 179 -384
2018-04-16 13:10:57 GMT 51.478954 -0.081177 2,925 278 180 -320
2018-04-16 13:10:54 GMT 51.478592 -0.077721 2,950 288 187 -192
2018-04-16 13:10:51 GMT 51.477905 -0.072970 2,975 286 187 -192
2018-04-16 13:10:47 GMT 51.477219 -0.069258 2,975 288 186 -192
2018-04-16 13:10:44 GMT 51.476440 -0.065308 2,975 287 187 -192
2018-04-16 13:10:41 GMT 51.475983 -0.062355 3,000 239 201 -448
2018-04-16 13:10:38 GMT 51.475342 -0.056862 3,000 277 189 -128
2018-04-16 13:10:35 GMT 51.475090 -0.052719 3,025 261 192 -128
2018-04-16 13:10:32 GMT 51.475067 -0.048473 3,025 261 192 -128
2018-04-16 13:10:29 GMT 51.475277 -0.045319 3,025 261 192 -128
2018-04-16 13:10:26 GMT 51.476028 -0.040605 3,125 239 198 -384
2018-04-16 13:10:23 GMT 51.477356 -0.035928 3,050 239 197 -512
2018-04-16 13:10:20 GMT 51.478397 -0.033188 3,125 239 198 -256
2018-04-16 13:10:16 GMT 51.480305 -0.028152 3,125 239 198 -256
2018-04-16 13:10:13 GMT 51.482399 -0.022659 3,175 239 200 -128
2018-04-16 13:10:10 GMT 51.483490 -0.019894 3,150 239 200 -384
2018-04-16 13:10:07 GMT 51.484451 -0.017370 3,150 239 201 -512
2018-04-16 13:10:03 GMT 51.487286 -0.010071 3,200 239 201 -576
2018-04-16 13:10:00 GMT 51.488266 -0.007553 3,275 239 199 -704
2018-04-16 13:09:57 GMT 51.489475 -0.004501 3,250 239 199 -640
2018-04-16 13:09:53 GMT 51.491684 0.001262 3,325 239 198 -768
2018-04-16 13:09:50 GMT 51.493011 0.004751 3,475 239 198 -768
2018-04-16 13:09:47 GMT 51.494457 0.008545 3,375 239 198 -576
2018-04-16 13:09:43 GMT 51.496307 0.013288 3,450 239 198 -832
2018-04-16 13:09:40 GMT 51.497761 0.017014 3,450 239 198 -832
2018-04-16 13:09:36 GMT 51.499603 0.021750 3,600 239 199 -960
2018-04-16 13:09:33 GMT 51.501068 0.025558 3,575 239 199 -1024
2018-04-16 13:09:30 GMT 51.502602 0.029526 3,600 239 199 -1024
2018-04-16 13:09:26 GMT 51.504639 0.034815 3,675 239 199 -1024
2018-04-16 13:09:22 GMT 51.506561 0.039863 3,750 239 199 -832
2018-04-16 13:09:19 GMT 51.507935 0.043426 3,825 238 199 -512
2018-04-16 13:09:14 GMT 51.510563 0.050125 3,900 238 200 -320
2018-04-16 13:09:11 GMT 51.512520 0.055161 3,875 238 202 -384
2018-04-16 13:09:08 GMT 51.513542 0.057755 3,900 238 202 -384
2018-04-16 13:09:05 GMT 51.514618 0.060573 3,900 238 205 -384
2018-04-16 13:09:02 GMT 51.516567 0.065460 3,925 239 210 -256
2018-04-16 13:08:59 GMT 51.518616 0.070648 3,950 239 210 -320
2018-04-16 13:08:56 GMT 51.519409 0.072784 3,950 239 210 -256
2018-04-16 13:08:53 GMT 51.521347 0.077795 3,975 239 209 128
2018-04-16 13:08:50 GMT 51.523132 0.082321 3,975 239 209 128
2018-04-16 13:08:47 GMT 51.524155 0.084915 3,975 239 208 128
2018-04-16 13:08:43 GMT 51.526344 0.090714 3,975 239 207 -64
2018-04-16 13:08:39 GMT 51.528671 0.096724 3,950 230 207 384
2018-04-16 13:08:35 GMT 51.530113 0.100632 3,950 240 206 384
2018-04-16 13:08:30 GMT 51.532768 0.107422 3,925 233 207 448
2018-04-16 13:08:27 GMT 51.534256 0.110606 3,925 210 210 384
2018-04-16 13:08:23 GMT 51.537094 0.115579 3,875 223 209 384
2018-04-16 13:08:20 GMT 51.538834 0.118029 3,875 219 210 448
2018-04-16 13:08:16 GMT 51.542171 0.121918 3,825 210 211 128
2018-04-16 13:08:13 GMT 51.546021 0.125600 3,825 210 210 384
2018-04-16 13:08:10 GMT 51.546875 0.126343 3,850 210 210 -256
2018-04-16 13:08:07 GMT 51.551788 0.130722 3,850 208 206 -64
2018-04-16 13:08:04 GMT 51.552601 0.131454 3,850 209 207 -128
2018-04-16 13:08:00 GMT 51.555626 0.134125 3,850 209 206 -64
2018-04-16 13:07:57 GMT 51.558979 0.137024 3,850 209 205 0
2018-04-16 13:07:54 GMT 51.561493 0.139111 3,850 208 205 0
2018-04-16 13:07:50 GMT 51.564377 0.141602 3,850 208 206 -64
2018-04-16 13:07:46 GMT 51.567581 0.144307 3,875 208 208 -128
2018-04-16 13:07:43 GMT 51.570477 0.146713 3,875 210 210 320
2018-04-16 13:07:39 GMT 51.573029 0.148909 3,875 209 208 0
2018-04-16 13:07:36 GMT 51.575596 0.151138 3,875 210 210 256
2018-04-16 13:07:33 GMT 51.579483 0.154551 3,850 209 212 64
2018-04-16 13:07:30 GMT 51.580856 0.155739 3,850 209 213 -512
2018-04-16 13:07:27 GMT 51.584118 0.158615 3,875 208 212 -384
2018-04-16 13:07:23 GMT 51.587769 0.161751 3,900 208 212 -448
2018-04-16 13:07:20 GMT 51.589874 0.163533 3,900 208 212 -448
2018-04-16 13:07:17 GMT 51.593353 0.166428 3,925 208 212 -128
2018-04-16 13:07:14 GMT 51.595940 0.168686 3,925 209 212 -320
2018-04-16 13:07:11 GMT 51.597839 0.170288 3,975 209 211 -832
2018-04-16 13:07:08 GMT 51.600952 0.172960 3,975 209 211 -896
2018-04-16 13:07:05 GMT 51.602692 0.174445 4,025 209 210 -640
2018-04-16 13:07:02 GMT 51.605949 0.177231 4,050 209 210 -320
2018-04-16 13:06:58 GMT 51.608696 0.179596 4,100 208 210 -384
2018-04-16 13:06:55 GMT 51.611298 0.181794 4,100 209 210 -256
2018-04-16 13:06:51 GMT 51.615372 0.185357 4,100 209 209 0
2018-04-16 13:06:48 GMT 51.617588 0.187302 4,100 209 209 64
2018-04-16 13:06:45 GMT 51.620499 0.189811 4,100 209 209 0
2018-04-16 13:06:42 GMT 51.622513 0.191593 4,100 209 210 -64
2018-04-16 13:06:39 GMT 51.625778 0.194397 4,100 209 209 256
2018-04-16 13:06:36 GMT 51.628479 0.196762 4,100 209 210 192
2018-04-16 13:06:33 GMT 51.630386 0.198422 4,100 209 211 128
2018-04-16 13:06:30 GMT 51.633133 0.200797 4,075 209 211 128
2018-04-16 13:06:27 GMT 51.634998 0.202484 4,075 208 212 64
2018-04-16 13:06:24 GMT 51.638115 0.205078 4,075 208 212 -128
2018-04-16 13:06:21 GMT 51.640209 0.206833 4,075 209 212 192
2018-04-16 13:06:18 GMT 51.643524 0.209631 4,075 208 213 192
2018-04-16 13:06:15 GMT 51.645798 0.211563 4,075 209 213 192
2018-04-16 13:06:12 GMT 51.648216 0.213699 4,050 212 213 128
2018-04-16 13:06:09 GMT 51.651352 0.216980 4,050 218 214 64
2018-04-16 13:06:06 GMT 51.654419 0.220989 4,050 224 214 0
2018-04-16 13:06:02 GMT 51.656616 0.224700 4,050 229 214 64
2018-04-16 13:05:58 GMT 51.658272 0.227890 4,050 242 214 64
2018-04-16 13:05:55 GMT 51.660553 0.233459 4,050 245 215 128
2018-04-16 13:05:52 GMT 51.662109 0.238656 4,050 247 215 64
2018-04-16 13:05:49 GMT 51.662601 0.240707 4,025 253 216 128
2018-04-16 13:05:46 GMT 51.663532 0.245667 4,025 259 217 -64
2018-04-16 13:05:43 GMT 51.664307 0.252314 4,025 265 218 0
2018-04-16 13:05:40 GMT 51.664490 0.255581 4,025 266 218 64
2018-04-16 13:05:37 GMT 51.664673 0.260109 4,025 268 219 0
2018-04-16 13:05:34 GMT 51.664902 0.266641 4,025 268 219 64
2018-04-16 13:05:31 GMT 51.665024 0.270844 4,025 268 219 0
2018-04-16 13:05:28 GMT 51.665115 0.274734 4,025 268 219 -64
2018-04-16 13:05:25 GMT 51.665257 0.280609 4,025 268 219 -64
2018-04-16 13:05:22 GMT 51.665359 0.284828 4,025 269 218 128
2018-04-16 13:05:18 GMT 51.665489 0.291672 4,025 269 217 192
2018-04-16 13:05:14 GMT 51.665630 0.298080 4,000 269 213 0
2018-04-16 13:05:11 GMT 51.665680 0.303534 4,000 269 215 64
2018-04-16 13:05:07 GMT 51.665813 0.309601 4,000 269 214 -64
2018-04-16 13:05:04 GMT 51.665863 0.314966 4,000 269 213 0
2018-04-16 13:05:01 GMT 51.665955 0.319138 4,000 269 213 64
2018-04-16 13:04:58 GMT 51.666046 0.324468 4,000 269 213 0
2018-04-16 13:04:55 GMT 51.666092 0.328328 4,000 269 214 0
2018-04-16 13:04:52 GMT 51.666229 0.334044 4,000 269 214 0
2018-04-16 13:04:48 GMT 51.666321 0.340353 4,000 269 215 -64
2018-04-16 13:04:45 GMT 51.666367 0.344214 4,000 269 214 -64
2018-04-16 13:04:42 GMT 51.666504 0.349336 4,000 268 214 -64
2018-04-16 13:04:39 GMT 51.666607 0.354080 4,000 268 214 -64
2018-04-16 13:04:36 GMT 51.666698 0.358505 4,000 268 214 -64
2018-04-16 13:04:33 GMT 51.666824 0.364553 4,000 269 213 0
2018-04-16 13:04:29 GMT 51.666916 0.368339 4,000 269 213 0
2018-04-16 13:04:26 GMT 51.667027 0.374374 4,025 269 213 0
2018-04-16 13:04:23 GMT 51.667099 0.379177 4,025 269 214 -64
2018-04-16 13:04:19 GMT 51.667213 0.385818 4,025 269 214 64
2018-04-16 13:04:16 GMT 51.667328 0.392539 4,025 269 214 -64
2018-04-16 13:04:13 GMT 51.667374 0.395656 4,025 269 215 -192
2018-04-16 13:04:10 GMT 51.667465 0.399516 4,025 269 215 -64
2018-04-16 13:04:06 GMT 51.667629 0.408096 4,050 269 214 -256
2018-04-16 13:04:03 GMT 51.667679 0.410690 4,050 269 214 -128
2018-04-16 13:04:00 GMT 51.667740 0.414808 4,100 26 245 -128
2018-04-16 13:03:56 GMT 51.667877 0.422454 4,075 269 213 -384
2018-04-16 13:03:53 GMT 51.667969 0.426834 4,100 268 213 0
2018-04-16 13:03:50 GMT 51.668060 0.430694 4,100 268 212 64
2018-04-16 13:03:47 GMT 51.668198 0.435742 4,075 270 213 128
2018-04-16 13:03:44 GMT 51.668236 0.441055 4,075 284 214 64
2018-04-16 13:03:40 GMT 51.667786 0.447025 4,075 286 215 0
2018-04-16 13:03:36 GMT 51.666550 0.453780 4,075 294 217 0
2018-04-16 13:03:32 GMT 51.664948 0.459050 4,075 308 221 128
2018-04-16 13:03:29 GMT 51.663486 0.462570 4,075 313 223 128
2018-04-16 13:03:26 GMT 51.660137 0.468445 4,075 320 226 64
2018-04-16 13:03:22 GMT 51.657623 0.471521 4,075 328 229 -256
2018-04-16 13:03:19 GMT 51.655621 0.473404 4,075 335 230 -128
2018-04-16 13:03:15 GMT 51.651291 0.476379 4,100 347 235 -128
2018-04-16 13:03:11 GMT 51.646408 0.478054 4,125 359 238 -256
2018-04-16 13:03:08 GMT 51.643753 0.478425 4,100 0 239 -320
2018-04-16 13:03:05 GMT 51.639359 0.478054 4,125 6 240 -384
2018-04-16 13:03:02 GMT 51.637115 0.477534 4,125 19 243 0
2018-04-16 13:02:59 GMT 51.633270 0.475827 4,125 19 243 0
2018-04-16 13:02:54 GMT 51.628529 0.472412 4,150 33 246 -320
2018-04-16 13:02:50 GMT 51.625080 0.468826 4,200 72 247 256
2018-04-16 13:02:47 GMT 51.622334 0.465012 4,175 43 246 -384
2018-04-16 13:02:44 GMT 51.619995 0.460980 4,175 58 246 64
2018-04-16 13:02:41 GMT 51.617634 0.456085 4,175 58 246 64
2018-04-16 13:02:38 GMT 51.615726 0.451050 4,175 61 246 -64
2018-04-16 13:02:35 GMT 51.614822 0.448138 4,175 65 246 -128
2018-04-16 13:02:32 GMT 51.612839 0.440292 4,200 71 247 128
2018-04-16 13:02:29 GMT 51.611847 0.434999 4,175 76 248 448
2018-04-16 13:02:26 GMT 51.611347 0.431824 4,175 78 249 320
2018-04-16 13:02:22 GMT 51.610462 0.424576 4,150 82 249 -64
2018-04-16 13:02:19 GMT 51.610001 0.417938 4,150 86 248 -256
2018-04-16 13:02:16 GMT 51.609814 0.414200 4,175 87 248 -256
2018-04-16 13:02:13 GMT 51.609673 0.406876 4,200 88 247 192
2018-04-16 13:02:10 GMT 51.609581 0.400238 4,175 88 247 256
2018-04-16 13:02:07 GMT 51.609486 0.394363 4,175 88 248 192
2018-04-16 13:02:04 GMT 51.609440 0.391464 4,150 88 248 128
2018-04-16 13:02:01 GMT 51.609329 0.384447 4,150 88 248 128
2018-04-16 13:01:58 GMT 51.609253 0.381088 4,150 88 249 192
2018-04-16 13:01:55 GMT 51.609161 0.375214 4,150 88 249 128
2018-04-16 13:01:52 GMT 51.609100 0.368933 4,125 88 249 64
2018-04-16 13:01:49 GMT 51.609020 0.361938 4,125 89 249 64
2018-04-16 13:01:46 GMT 51.608974 0.357513 4,125 89 249 64
2018-04-16 13:01:43 GMT 51.608929 0.353088 4,125 89 248 128
2018-04-16 13:01:40 GMT 51.608871 0.344585 4,100 88 248 128
2018-04-16 13:01:37 GMT 51.608833 0.342026 4,100 87 249 64
2018-04-16 13:01:33 GMT 51.608643 0.333524 4,100 87 249 64
2018-04-16 13:01:30 GMT 51.608509 0.329437 4,100 90 248 -64
2018-04-16 13:01:27 GMT 51.608643 0.320979 4,100 95 246 0
2018-04-16 13:01:24 GMT 51.609020 0.315552 4,100 98 245 64
2018-04-16 13:01:21 GMT 51.609486 0.311203 4,100 103 244 0
2018-04-16 13:01:18 GMT 51.610153 0.306652 4,100 105 244 0
2018-04-16 13:01:15 GMT 51.611115 0.301437 4,100 111 241 64
2018-04-16 13:01:12 GMT 51.612213 0.296334 4,100 111 241 64
2018-04-16 13:01:09 GMT 51.613632 0.291063 4,100 118 238 64
2018-04-16 13:01:06 GMT 51.615585 0.285110 4,100 122 237 0
2018-04-16 13:01:03 GMT 51.617447 0.280304 4,100 124 236 0
2018-04-16 13:01:00 GMT 51.618256 0.278221 4,100 123 236 0
2018-04-16 13:00:57 GMT 51.620956 0.271763 4,100 123 234 64
2018-04-16 13:00:54 GMT 51.621822 0.269775 4,100 123 234 0
2018-04-16 13:00:50 GMT 51.624573 0.263152 4,100 123 232 0
2018-04-16 13:00:47 GMT 51.627083 0.257111 4,075 122 230 192
2018-04-16 13:00:44 GMT 51.628479 0.253601 4,100 123 231 192
2018-04-16 13:00:40 GMT 51.631039 0.247269 4,075 122 230 192
2018-04-16 13:00:37 GMT 51.631851 0.245262 4,050 125 232 192
2018-04-16 13:00:33 GMT 51.634415 0.238953 4,050 124 231 192
2018-04-16 13:00:30 GMT 51.636997 0.233078 4,050 125 232 64
2018-04-16 13:00:27 GMT 51.638443 0.229645 4,025 124 232 64
2018-04-16 13:00:23 GMT 51.640907 0.223999 4,025 124 232 64
2018-04-16 13:00:18 GMT 51.644306 0.215912 4,025 123 234 128
2018-04-16 13:00:14 GMT 51.646362 0.210967 4,000 123 236 128
2018-04-16 13:00:11 GMT 51.648636 0.205383 4,000 123 236 192
2018-04-16 13:00:08 GMT 51.650082 0.201874 4,000 123 236 192
2018-04-16 13:00:05 GMT 51.651169 0.199239 4,000 123 237 256
2018-04-16 13:00:02 GMT 51.653248 0.194244 3,975 123 237 192
2018-04-16 12:59:57 GMT 51.657028 0.185134 3,975 123 239 128
2018-04-16 12:59:54 GMT 51.658413 0.181885 3,975 123 239 128
2018-04-16 12:59:51 GMT 51.660233 0.177414 3,975 123 238 128
2018-04-16 12:59:47 GMT 51.662659 0.171550 3,950 123 238 128
2018-04-16 12:59:44 GMT 51.664398 0.167393 3,950 123 238 128
2018-04-16 12:59:41 GMT 51.666233 0.162964 3,950 124 237 192
2018-04-16 12:59:36 GMT 51.669800 0.154477 3,950 124 237 128
2018-04-16 12:59:33 GMT 51.671494 0.150320 3,925 124 237 64
2018-04-16 12:59:30 GMT 51.672611 0.147705 3,925 124 237 64
2018-04-16 12:59:27 GMT 51.674847 0.142441 3,925 123 237 -64
2018-04-16 12:59:23 GMT 51.677265 0.136566 3,925 123 236 -128
2018-04-16 12:59:19 GMT 51.679550 0.130945 3,925 123 235 -256
2018-04-16 12:59:16 GMT 51.681702 0.125749 3,975 123 232 -192
2018-04-16 12:59:13 GMT 51.683121 0.122260 3,950 123 232 -192
2018-04-16 12:59:10 GMT 51.685135 0.117340 4,000 123 230 -256
2018-04-16 12:59:07 GMT 51.686920 0.113055 3,975 123 228 -256
2018-04-16 12:59:03 GMT 51.689163 0.107636 4,000 123 227 -256
2018-04-16 12:58:59 GMT 51.691406 0.102292 4,025 123 225 -256
2018-04-16 12:58:56 GMT 51.693142 0.098114 4,050 123 226 -320
2018-04-16 12:58:53 GMT 51.695328 0.092773 4,050 123 225 -384
2018-04-16 12:58:50 GMT 51.696579 0.089672 4,050 123 226 -64
2018-04-16 12:58:47 GMT 51.698273 0.085441 4,050 122 226 64
2018-04-16 12:58:44 GMT 51.699986 0.081177 4,050 122 228 0
2018-04-16 12:58:41 GMT 51.702026 0.076088 4,050 122 229 64
2018-04-16 12:58:38 GMT 51.703522 0.072327 4,050 123 230 64
2018-04-16 12:58:33 GMT 51.706009 0.066289 4,050 123 232 64
2018-04-16 12:58:30 GMT 51.708038 0.061417 4,050 122 234 -192
2018-04-16 12:58:27 GMT 51.710037 0.056416 4,100 122 236 -64
2018-04-16 12:58:24 GMT 51.711994 0.051346 4,100 121 236 -64
2018-04-16 12:58:21 GMT 51.713436 0.047836 4,100 122 236 -64
2018-04-16 12:58:18 GMT 51.714935 0.043945 4,100 121 236 -128
2018-04-16 12:58:15 GMT 51.716930 0.038834 4,100 121 236 -128
2018-04-16 12:58:11 GMT 51.719677 0.031662 4,100 121 234 -320
2018-04-16 12:58:08 GMT 51.721073 0.028076 4,125 121 234 -256
2018-04-16 12:58:05 GMT 51.723221 0.022492 4,125 121 233 -320
2018-04-16 12:58:02 GMT 51.724365 0.019523 4,125 120 236 192
2018-04-16 12:57:59 GMT 51.725922 0.015366 4,150 121 232 256
2018-04-16 12:57:55 GMT 51.728394 0.008908 4,150 120 232 256
2018-04-16 12:57:52 GMT 51.730011 0.004425 4,125 120 231 192
2018-04-16 12:57:49 GMT 51.731644 -0.000074 4,125 121 234 64
2018-04-16 12:57:45 GMT 51.733688 -0.005722 4,100 120 234 128
2018-04-16 12:57:42 GMT 51.735306 -0.010244 4,100 120 234 128
2018-04-16 12:57:39 GMT 51.737411 -0.015945 4,100 121 235 64
2018-04-16 12:57:34 GMT 51.739792 -0.022195 4,025 119 237 256
2018-04-16 12:57:31 GMT 51.741394 -0.026427 4,100 119 237 256
2018-04-16 12:57:28 GMT 51.743324 -0.031891 4,075 115 237 128
2018-04-16 12:57:23 GMT 51.745514 -0.038898 4,050 107 238 192
2018-04-16 12:57:20 GMT 51.746613 -0.043500 3,975 102 240 192
2018-04-16 12:57:17 GMT 51.747437 -0.048325 4,025 100 240 320
2018-04-16 12:57:13 GMT 51.748352 -0.057159 4,000 91 242 256
2018-04-16 12:57:10 GMT 51.748535 -0.061835 4,000 86 242 320
2018-04-16 12:57:07 GMT 51.748444 -0.067215 3,975 80 242 64
2018-04-16 12:57:02 GMT 51.747894 -0.075494 3,975 77 241 64
2018-04-16 12:56:59 GMT 51.747253 -0.081136 3,975 77 241 64
2018-04-16 12:56:56 GMT 51.746536 -0.086746 3,975 77 240 -64
2018-04-16 12:56:53 GMT 51.745880 -0.091676 3,975 78 239 0
2018-04-16 12:56:50 GMT 51.745186 -0.096893 3,975 78 239 64
2018-04-16 12:56:47 GMT 51.744579 -0.101776 3,975 79 238 128
2018-04-16 12:56:43 GMT 51.743729 -0.109121 3,950 77 240 0
2018-04-16 12:56:40 GMT 51.743046 -0.115051 3,950 78 237 64
2018-04-16 12:56:37 GMT 51.742493 -0.119513 3,950 78 239 0
2018-04-16 12:56:34 GMT 51.741650 -0.125809 3,950 77 240 64
2018-04-16 12:56:31 GMT 51.741028 -0.130648 3,950 77 241 -64
2018-04-16 12:56:28 GMT 51.740341 -0.135622 3,950 78 237 -320
2018-04-16 12:56:24 GMT 51.739086 -0.145187 3,950 78 246 -192
2018-04-16 12:56:21 GMT 51.738342 -0.150986 3,975 78 248 -320
2018-04-16 12:56:18 GMT 51.737823 -0.154922 4,000 78 248 -320
2018-04-16 12:56:15 GMT 51.737320 -0.159302 4,000 78 248 -64
2018-04-16 12:56:11 GMT 51.736343 -0.166931 4,000 78 248 0
2018-04-16 12:56:08 GMT 51.735691 -0.171967 4,000 77 247 -320
2018-04-16 12:56:04 GMT 51.734806 -0.178452 4,075 77 244 -1088
2018-04-16 12:56:01 GMT 51.733875 -0.185623 4,075 78 241 -704
2018-04-16 12:55:58 GMT 51.733315 -0.189819 4,100 77 240 -448
2018-04-16 12:55:55 GMT 51.732712 -0.194702 4,150 78 238 -192
2018-04-16 12:55:52 GMT 51.732010 -0.199907 4,150 77 236 -640
2018-04-16 12:55:49 GMT 51.731220 -0.205765 4,150 77 236 -896
2018-04-16 12:55:44 GMT 51.730087 -0.214308 4,250 78 233 -1792
2018-04-16 12:55:41 GMT 51.729492 -0.219133 4,375 78 232 -1664
2018-04-16 12:55:38 GMT 51.728802 -0.224228 4,400 78 232 -1664
2018-04-16 12:55:35 GMT 51.728195 -0.228958 4,525 78 235 -1216
2018-04-16 12:55:32 GMT 51.727589 -0.233765 4,650 78 239 -960
2018-04-16 12:55:29 GMT 51.726845 -0.240021 4,625 78 241 -832
2018-04-16 12:55:26 GMT 51.726192 -0.244904 4,675 78 244 -640
2018-04-16 12:55:23 GMT 51.725540 -0.249863 4,700 78 247 -704
2018-04-16 12:55:20 GMT 51.724777 -0.256026 4,825 78 236 -1984
2018-04-16 12:55:17 GMT 51.724239 -0.260086 4,775 77 253 -576
2018-04-16 12:55:13 GMT 51.723026 -0.268173 4,825 76 256 64
2018-04-16 12:55:10 GMT 51.722214 -0.273767 4,825 77 258 576
2018-04-16 12:55:07 GMT 51.721390 -0.279780 4,800 78 258 512
2018-04-16 12:55:04 GMT 51.720474 -0.287278 4,775 79 257 384
2018-04-16 12:55:01 GMT 51.719971 -0.291806 4,850 79 255 -448
2018-04-16 12:54:58 GMT 51.719582 -0.295181 4,775 79 251 -704
2018-04-16 12:54:55 GMT 51.718918 -0.300788 4,775 79 252 -640
2018-04-16 12:54:52 GMT 51.718002 -0.308805 4,825 79 248 -704
2018-04-16 12:54:49 GMT 51.717487 -0.312805 4,850 78 245 -640
2018-04-16 12:54:46 GMT 51.716812 -0.318158 4,975 78 239 -1152
2018-04-16 12:54:41 GMT 51.715759 -0.326621 4,925 78 239 -1152
2018-04-16 12:54:38 GMT 51.714935 -0.332856 5,100 78 237 -1984
2018-04-16 12:54:35 GMT 51.714371 -0.337372 5,075 78 238 -1920
2018-04-16 12:54:31 GMT 51.713516 -0.343917 5,300 78 236 -1984
2018-04-16 12:54:28 GMT 51.712601 -0.351563 5,350 78 235 -1984
2018-04-16 12:54:25 GMT 51.712135 -0.355301 5,475 78 234 -2048
2018-04-16 12:54:22 GMT 51.711411 -0.361138 5,575 78 234 -1792
2018-04-16 12:54:19 GMT 51.710907 -0.365221 5,700 78 236 -1664
2018-04-16 12:54:16 GMT 51.710175 -0.370714 5,725 77 236 -1664
2018-04-16 12:54:13 GMT 51.709667 -0.374527 5,850 68 258 128
2018-04-16 12:54:10 GMT 51.708782 -0.380783 5,850 77 242 -704
2018-04-16 12:54:07 GMT 51.708160 -0.385338 5,925 76 248 -320
2018-04-16 12:54:04 GMT 51.707108 -0.392539 5,925 76 248 -320
2018-04-16 12:54:01 GMT 51.706192 -0.398997 5,950 75 258 64
2018-04-16 12:53:58 GMT 51.705711 -0.402298 5,975 77 253 -448
2018-04-16 12:53:55 GMT 51.704819 -0.409315 6,000 78 255 -576
2018-04-16 12:53:52 GMT 51.704266 -0.413437 6,025 78 256 -576
2018-04-16 12:53:49 GMT 51.703476 -0.419388 6,075 77 257 -512
2018-04-16 12:53:46 GMT 51.702778 -0.424652 6,100 77 258 -384
2018-04-16 12:53:43 GMT 51.701981 -0.430323 6,125 76 259 -192
2018-04-16 12:53:40 GMT 51.701149 -0.435944 6,125 76 259 0
2018-04-16 12:53:37 GMT 51.699921 -0.443759 6,125 76 259 0
2018-04-16 12:53:34 GMT 51.699379 -0.447159 6,125 76 259 0
2018-04-16 12:53:30 GMT 51.697769 -0.457195 6,100 63 256 128
2018-04-16 12:53:27 GMT 51.697357 -0.460238 6,125 65 256 128
2018-04-16 12:53:24 GMT 51.696625 -0.466251 6,100 79 258 192
2018-04-16 12:53:21 GMT 51.696259 -0.469666 6,100 71 258 64
2018-04-16 12:53:17 GMT 51.695068 -0.478276 6,100 71 258 64
2018-04-16 12:53:14 GMT 51.693840 -0.484543 6,100 63 256 128
2018-04-16 12:53:11 GMT 51.692211 -0.490875 6,100 63 256 128
2018-04-16 12:53:08 GMT 51.691269 -0.494014 6,100 62 255 256
2018-04-16 12:53:05 GMT 51.689255 -0.500026 6,075 59 253 384
2018-04-16 12:53:02 GMT 51.687740 -0.504303 6,050 59 253 256
2018-04-16 12:52:59 GMT 51.686111 -0.508881 6,025 59 251 128
2018-04-16 12:52:56 GMT 51.684017 -0.514679 6,025 59 252 192
2018-04-16 12:52:52 GMT 51.681747 -0.520811 6,000 59 253 128
2018-04-16 12:52:49 GMT 51.679966 -0.525665 6,000 58 254 0
2018-04-16 12:52:45 GMT 51.677315 -0.532761 5,975 58 253 192
2018-04-16 12:52:42 GMT 51.675247 -0.538256 5,975 58 254 64
2018-04-16 12:52:39 GMT 51.673637 -0.542450 5,975 57 255 128
2018-04-16 12:52:35 GMT 51.671402 -0.548203 5,975 57 255 128
2018-04-16 12:52:32 GMT 51.669121 -0.554047 5,975 57 256 64
2018-04-16 12:52:29 GMT 51.667583 -0.557861 5,975 57 257 192
2018-04-16 12:52:26 GMT 51.665680 -0.562678 5,975 57 258 64
2018-04-16 12:52:23 GMT 51.663208 -0.568848 5,800 57 266 960
2018-04-16 12:52:20 GMT 51.661392 -0.573349 5,950 57 259 256
2018-04-16 12:52:17 GMT 51.659855 -0.577316 5,900 58 263 832
2018-04-16 12:52:14 GMT 51.657295 -0.583954 5,875 58 263 832
2018-04-16 12:52:11 GMT 51.656158 -0.586952 5,825 58 266 768
2018-04-16 12:52:08 GMT 51.654099 -0.592297 5,825 57 266 896
2018-04-16 12:52:05 GMT 51.651718 -0.598309 5,750 57 268 640
2018-04-16 12:52:02 GMT 51.649887 -0.603060 5,725 57 267 640
2018-04-16 12:51:59 GMT 51.648605 -0.606475 5,700 50 266 448
2018-04-16 12:51:56 GMT 51.645798 -0.612488 5,675 3 246 2176
2018-04-16 12:51:53 GMT 51.643295 -0.616867 5,625 44 265 1152
2018-04-16 12:51:50 GMT 51.640305 -0.621567 5,600 44 265 704
2018-04-16 12:51:47 GMT 51.638031 -0.625107 5,525 44 264 640
2018-04-16 12:51:44 GMT 51.634998 -0.629807 5,500 44 264 640
2018-04-16 12:51:40 GMT 51.631348 -0.635574 5,450 44 263 640
2018-04-16 12:51:37 GMT 51.628712 -0.639648 5,400 3 246 2176
2018-04-16 12:51:33 GMT 51.625076 -0.645373 5,375 43 256 448
2018-04-16 12:51:30 GMT 51.623016 -0.648565 5,375 43 256 576
2018-04-16 12:51:27 GMT 51.620956 -0.651756 5,325 41 255 512
2018-04-16 12:51:24 GMT 51.617310 -0.657120 5,200 26 252 1664
2018-04-16 12:51:21 GMT 51.615444 -0.659485 5,050 16 252 1728
2018-04-16 12:51:18 GMT 51.612373 -0.662842 5,225 27 252 1600
2018-04-16 12:51:15 GMT 51.609283 -0.665564 5,100 22 252 1664
2018-04-16 12:51:11 GMT 51.605156 -0.668182 5,050 16 252 1728
2018-04-16 12:51:08 GMT 51.600906 -0.670092 4,900 6 248 2048
2018-04-16 12:51:05 GMT 51.597477 -0.670929 4,850 6 248 2048
2018-04-16 12:51:02 GMT 51.594498 -0.671428 4,775 4 247 2112
2018-04-16 12:50:58 GMT 51.590378 -0.672022 4,625 4 247 2112
2018-04-16 12:50:54 GMT 51.584015 -0.672838 4,425 4 247 2112
2018-04-16 12:50:50 GMT 51.581509 -0.673141 4,350 3 246 2176
2018-04-16 12:50:47 GMT 51.577606 -0.673506 4,225 3 246 2176
2018-04-16 12:50:43 GMT 51.573315 -0.673904 4,025 2 246 2048
2018-04-16 12:50:40 GMT 51.568752 -0.674286 3,950 2 245 2048
2018-04-16 12:50:37 GMT 51.566471 -0.674438 3,875 1 245 2112
2018-04-16 12:50:34 GMT 51.562889 -0.674591 3,650 1 245 2048
2018-04-16 12:50:31 GMT 51.559723 -0.674744 3,575 1 244 1984
2018-04-16 12:50:28 GMT 51.555206 -0.674896 3,525 0 244 1792
2018-04-16 12:50:24 GMT 51.551376 -0.674991 3,275 0 242 1920
2018-04-16 12:50:20 GMT 51.547573 -0.675049 3,275 349 239 448
2018-04-16 12:50:17 GMT 51.543941 -0.675125 3,150 0 244 1024
2018-04-16 12:50:12 GMT 51.537659 -0.674896 3,100 353 240 448
2018-04-16 12:50:09 GMT 51.535004 -0.674362 3,075 349 239 448
2018-04-16 12:50:05 GMT 51.531139 -0.672989 3,075 344 238 256
2018-04-16 12:50:02 GMT 51.525970 -0.670092 3,050 328 232 256
2018-04-16 12:49:59 GMT 51.524414 -0.668904 3,000 312 226 64
2018-04-16 12:49:56 GMT 51.521549 -0.666428 3,025 330 233 256
2018-04-16 12:49:53 GMT 51.518383 -0.662918 3,025 320 229 256
2018-04-16 12:49:49 GMT 51.515579 -0.659254 3,000 308 225 192
2018-04-16 12:49:46 GMT 51.514069 -0.656878 3,000 312 226 64
2018-04-16 12:49:43 GMT 51.511124 -0.651627 2,975 306 224 128
2018-04-16 12:49:39 GMT 51.508747 -0.646210 2,975 302 223 0
2018-04-16 12:49:36 GMT 51.507259 -0.642242 2,975 299 221 192
2018-04-16 12:49:29 GMT 51.504047 -0.632401 2,950 298 217 64
2018-04-16 12:49:26 GMT 51.502045 -0.626068 2,775 296 208 1088
2018-04-16 12:49:22 GMT 51.500786 -0.622101 2,900 297 211 704
2018-04-16 12:49:18 GMT 51.499100 -0.616719 2,875 297 211 704
2018-04-16 12:49:15 GMT 51.497223 -0.610558 2,775 296 208 1088
2018-04-16 12:49:11 GMT 51.495895 -0.606104 2,775 296 208 704
2018-04-16 12:49:08 GMT 51.494888 -0.602763 2,600 296 208 1088
2018-04-16 12:49:05 GMT 51.493618 -0.598602 2,675 295 213 896
2018-04-16 12:49:00 GMT 51.491291 -0.590820 2,625 296 212 1024
2018-04-16 12:48:57 GMT 51.490082 -0.586853 2,575 296 214 896
2018-04-16 12:48:54 GMT 51.488869 -0.582886 2,525 296 215 640
2018-04-16 12:48:51 GMT 51.487846 -0.579376 2,350 296 216 896
2018-04-16 12:48:47 GMT 51.485889 -0.572510 2,425 295 210 960
2018-04-16 12:48:44 GMT 51.484726 -0.568542 2,375 295 205 1472
2018-04-16 12:48:41 GMT 51.483719 -0.564905 2,325 295 205 1472
2018-04-16 12:48:37 GMT 51.482121 -0.559082 2,200 294 200 1536
2018-04-16 12:48:34 GMT 51.480679 -0.553665 2,125 294 198 1408
2018-04-16 12:48:31 GMT 51.479931 -0.550919 2,075 294 198 1344
2018-04-16 12:48:27 GMT 51.478302 -0.545120 1,975 295 194 960
2018-04-16 12:48:24 GMT 51.476906 -0.540466 1,925 296 194 768
2018-04-16 12:48:21 GMT 51.475929 -0.537415 1,875 300 190 768
2018-04-16 12:48:18 GMT 51.474716 -0.533981 1,650 304 186 832
2018-04-16 12:48:15 GMT 51.473328 -0.530536 1,775 305 185 896
2018-04-16 12:48:11 GMT 51.471226 -0.525894 1,750 308 181 1152
2018-04-16 12:48:05 GMT 51.468475 -0.520217 1,625 306 176 1024
2018-04-16 12:48:01 GMT 51.466507 -0.514947 1,550 296 167 896
2018-04-16 12:47:57 GMT 51.465546 -0.511310 1,450 269 147 2176
2018-04-16 12:47:53 GMT 51.464710 -0.506058 1,450 278 155 1024
2018-04-16 12:47:50 GMT 51.464523 -0.502472 1,375 274 152 1344

Making use of Plane Finder data

You are free to use the raw flight data, aircraft information and images provided in this report for your own purposes provided the data is correctly attributed to Plane Finder. We ask that you please credit Plane Finder and link to planefinder.net in close proximity to the content.

Optionally one of the following logos (no smaller then 150x24px) can be used and must link to planefinder.net

Embedding the Plane Finder map

You are welcome to embed the Plane Finder playback map on your website to offer visitors a more interactive experience. We suggest using the following HTML code:

<iframe src="//planefinder.net/data/report/BA766-G-EUPU-7700-squawk-2018-04-16/map" width="800" height="600" seamless="seamless"></iframe>

Where our data comes from

Plane Finder has a global network of data feeds and antenna radars that receive data broadcast directly from aircraft. The primary technologies used are ADS-B and MLAT. We also show feeds from the FAA and a FLARM glider feed.

Click here to find out more about the Plane Finder network.

How we collect our data